Time;durP1;ratioP1;P1;durP2;ratioP2;P2;SDS_P1;SDS_P2;PMS_P1;PMS_P2;Temp;Humidity;BMP_temperature;BMP_pressure;BME280_temperature;BME280_humidity;BME280_pressure;Samples;Min_cycle;Max_cycle;Signal;HPM_P1;HPM_P2
2021/11/19 00:00:41;;;;;;;33.20;15.90;;;;;;;-144.57;100.00;62443.72;5052852;28;20049;-63
2021/11/19 00:03:08;;;;;;;32.15;15.20;;;;;;;-144.57;100.00;62443.72;5052610;28;20072;-63
2021/11/19 00:05:35;;;;;;;33.08;16.00;;;;;;;-144.57;100.00;62443.72;5052863;28;20040;-63
2021/11/19 00:08:01;;;;;;;35.40;16.40;;;;;;;-144.57;100.00;62443.72;5052889;28;20040;-63
2021/11/19 00:10:27;;;;;;;37.97;16.90;;;;;;;-144.57;100.00;62443.72;5052874;28;20182;-64
2021/11/19 00:12:52;;;;;;;36.03;15.90;;;;;;;-144.57;100.00;62443.72;5053075;28;20048;-64
2021/11/19 00:15:18;;;;;;;29.70;15.55;;;;;;;-144.57;100.00;62443.72;5052860;28;20045;-63
2021/11/19 00:17:44;;;;;;;30.80;14.95;;;;;;;-144.57;100.00;62443.72;5052600;28;20049;-63
2021/11/19 00:20:21;;;;;;;33.22;16.00;;;;;;;-144.57;100.00;62443.72;5051513;28;20041;-63
2021/11/19 00:22:47;;;;;;;33.05;15.30;;;;;;;-144.57;100.00;62443.72;5051504;28;20050;-62
2021/11/19 00:25:14;;;;;;;34.22;17.08;;;;;;;-144.57;100.00;62443.72;5050929;28;20033;-63
2021/11/19 00:27:40;;;;;;;32.75;15.98;;;;;;;-144.57;100.00;62443.72;5051280;28;20083;-63
2021/11/19 00:30:09;;;;;;;33.70;16.33;;;;;;;-144.57;100.00;62443.72;5051025;28;20120;-63
2021/11/19 00:32:36;;;;;;;36.90;15.57;;;;;;;-144.57;100.00;62443.72;5034307;28;20517;-63
2021/11/19 00:35:03;;;;;;;37.92;17.88;;;;;;;-144.57;100.00;62443.72;5052366;28;20123;-63
2021/11/19 00:37:29;;;;;;;35.10;15.38;;;;;;;-144.57;100.00;62443.72;5050621;28;20059;-63
2021/11/19 00:39:55;;;;;;;35.10;15.48;;;;;;;-144.57;100.00;62443.72;5051193;28;20037;-62
2021/11/19 00:42:23;;;;;;;31.58;14.85;;;;;;;-144.57;100.00;62443.72;5050793;28;20033;-62
2021/11/19 00:44:49;;;;;;;33.55;15.35;;;;;;;-144.57;100.00;62443.72;5052281;28;22275;-63
2021/11/19 00:47:16;;;;;;;34.85;16.13;;;;;;;-144.57;100.00;62443.72;5052505;28;20068;-63
2021/11/19 00:49:43;;;;;;;32.67;14.82;;;;;;;-144.57;100.00;62443.72;5052185;28;20091;-62
2021/11/19 00:52:11;;;;;;;30.85;15.05;;;;;;;-144.57;100.00;62443.72;5052460;28;20083;-62
2021/11/19 00:54:36;;;;;;;34.55;15.23;;;;;;;-144.57;100.00;62443.72;5033739;28;20040;-62
2021/11/19 00:57:08;;;;;;;33.78;16.20;;;;;;;-144.57;100.00;62443.72;5034191;28;20512;-64
2021/11/19 00:59:35;;;;;;;28.02;13.65;;;;;;;-144.57;100.00;62443.72;5050340;28;20049;-63
2021/11/19 01:02:07;;;;;;;33.67;15.13;;;;;;;-144.57;100.00;62443.72;5050655;28;20124;-63
2021/11/19 01:04:35;;;;;;;27.20;13.80;;;;;;;-144.57;100.00;62443.72;5051451;28;20041;-64
2021/11/19 01:07:02;;;;;;;28.95;13.38;;;;;;;-144.57;100.00;62443.72;5050643;28;20072;-64
2021/11/19 01:09:31;;;;;;;31.05;14.68;;;;;;;-144.57;100.00;62443.72;5017091;28;20048;-63
2021/11/19 01:11:59;;;;;;;31.85;14.20;;;;;;;-144.57;100.00;62443.72;5050594;28;20132;-64
2021/11/19 01:14:29;;;;;;;31.95;14.85;;;;;;;-144.57;100.00;62443.72;5032777;28;20041;-62
2021/11/19 01:17:00;;;;;;;30.25;16.17;;;;;;;-144.57;100.00;62443.72;5051922;28;20043;-63
2021/11/19 01:19:37;;;;;;;29.63;14.23;;;;;;;-144.57;100.00;62443.72;5050405;28;20148;-63
2021/11/19 01:22:25;;;;;;;29.48;14.60;;;;;;;-144.57;100.00;62443.72;5033880;28;20033;-63
2021/11/19 01:24:52;;;;;;;32.47;13.80;;;;;;;-144.57;100.00;62443.72;5050160;28;20045;-63
2021/11/19 01:27:19;;;;;;;32.40;14.55;;;;;;;-144.57;100.00;62443.72;5051179;28;20063;-63
2021/11/19 01:29:47;;;;;;;30.83;15.93;;;;;;;-144.57;100.00;62443.72;5033207;28;20086;-64
2021/11/19 01:32:18;;;;;;;33.10;14.98;;;;;;;-144.57;100.00;62443.72;5017233;28;20032;-63
2021/11/19 01:35:14;;;;;;;33.28;15.35;;;;;;;-144.57;100.00;62443.72;5045804;28;20092;-63
2021/11/19 01:38:07;;;;;;;32.47;14.85;;;;;;;-144.57;100.00;62443.72;5048508;28;20510;-64
2021/11/19 01:40:44;;;;;;;31.77;14.38;;;;;;;-144.57;100.00;62443.72;5050018;28;20080;-62
2021/11/19 01:43:29;;;;;;;31.40;15.55;;;;;;;-144.57;100.00;62443.72;5051542;28;20044;-64
2021/11/19 01:46:06;;;;;;;32.78;13.93;;;;;;;-144.57;100.00;62443.72;5051272;28;20390;-62
2021/11/19 01:48:39;;;;;;;31.27;14.48;;;;;;;-144.57;100.00;62443.72;5050215;28;20048;-63
2021/11/19 01:51:10;;;;;;;34.15;16.67;;;;;;;-144.57;100.00;62443.72;5049796;28;20053;-63
2021/11/19 01:53:44;;;;;;;30.95;14.52;;;;;;;-144.57;100.00;62443.72;5049951;28;20536;-62
2021/11/19 01:56:11;;;;;;;29.13;14.40;;;;;;;-144.57;100.00;62443.72;5049809;28;20099;-63
2021/11/19 01:58:46;;;;;;;27.38;13.77;;;;;;;-144.57;100.00;62443.72;5049801;28;20049;-62
2021/11/19 02:01:22;;;;;;;32.75;14.25;;;;;;;-144.57;100.00;62443.72;5049940;28;20548;-61
2021/11/19 02:03:53;;;;;;;29.10;14.07;;;;;;;-144.57;100.00;62443.72;5033264;28;20049;-64
2021/11/19 02:06:32;;;;;;;28.85;13.20;;;;;;;-144.57;100.00;62443.72;5049686;28;20072;-63
2021/11/19 02:09:18;;;;;;;26.92;13.35;;;;;;;-144.57;100.00;62443.72;5020319;28;20334;-64
2021/11/19 02:12:12;;;;;;;26.83;12.95;;;;;;;-144.57;100.00;62443.72;5049772;28;20044;-64
2021/11/19 02:14:38;;;;;;;31.23;14.70;;;;;;;-144.57;100.00;62443.72;5046047;28;20087;-63
2021/11/19 02:17:06;;;;;;;28.08;12.93;;;;;;;-144.57;100.00;62443.72;5049606;28;20037;-64
2021/11/19 02:19:54;;;;;;;31.80;14.30;;;;;;;-144.57;100.00;62443.72;5049682;28;20467;-63
2021/11/19 02:22:25;;;;;;;30.55;13.75;;;;;;;-144.57;100.00;62443.72;5049728;28;20056;-63
2021/11/19 02:25:16;;;;;;;29.40;14.40;;;;;;;-144.57;100.00;62443.72;5034526;28;20041;-63
2021/11/19 02:27:55;;;;;;;31.67;12.50;;;;;;;-144.57;100.00;62443.72;5033381;28;20050;-63
2021/11/19 02:30:27;;;;;;;30.92;13.80;;;;;;;-144.57;100.00;62443.72;5017234;28;20136;-63
2021/11/19 02:33:05;;;;;;;29.65;12.75;;;;;;;-144.57;100.00;62443.72;5052925;28;20045;-63
2021/11/19 02:35:59;;;;;;;30.10;13.30;;;;;;;-144.57;100.00;62443.72;5053291;28;20044;-63
2021/11/19 02:38:38;;;;;;;31.50;14.10;;;;;;;-144.57;100.00;62443.72;5053548;28;20095;-63
2021/11/19 02:41:05;;;;;;;30.17;13.13;;;;;;;-144.57;100.00;62443.72;5036786;28;20045;-63
2021/11/19 02:43:36;;;;;;;30.02;12.10;;;;;;;-144.57;100.00;62443.72;5053565;28;20037;-64
2021/11/19 02:46:03;;;;;;;25.48;12.52;;;;;;;-144.57;100.00;62443.72;5036331;28;20037;-64
2021/11/19 02:48:32;;;;;;;29.67;12.98;;;;;;;-144.57;100.00;62443.72;5054276;28;20087;-64
2021/11/19 02:51:02;;;;;;;24.77;13.25;;;;;;;-144.57;100.00;62443.72;5053058;28;20049;-64
2021/11/19 02:53:28;;;;;;;28.83;12.80;;;;;;;-144.57;100.00;62443.72;5052397;28;20102;-63
2021/11/19 02:55:56;;;;;;;26.30;12.77;;;;;;;-144.57;100.00;62443.72;5052563;28;20128;-63
2021/11/19 02:58:30;;;;;;;26.80;12.55;;;;;;;-144.57;100.00;62443.72;5035834;28;20143;-63
2021/11/19 03:01:05;;;;;;;31.38;12.68;;;;;;;-144.57;100.00;62443.72;5033240;28;20129;-64
2021/11/19 03:03:32;;;;;;;25.10;12.02;;;;;;;-144.57;100.00;62443.72;5033113;28;20052;-62
2021/11/19 03:05:58;;;;;;;28.65;12.10;;;;;;;-144.57;100.00;62443.72;5033000;28;20037;-63
2021/11/19 03:08:25;;;;;;;28.05;12.75;;;;;;;-144.57;100.00;62443.72;5064055;28;20072;-63
2021/11/19 03:10:56;;;;;;;21.17;11.07;;;;;;;-144.57;100.00;62443.72;5052733;28;20045;-63
2021/11/19 03:13:25;;;;;;;27.05;12.68;;;;;;;-144.57;100.00;62443.72;5052697;28;20124;-64
2021/11/19 03:15:51;;;;;;;27.40;12.00;;;;;;;-144.57;100.00;62443.72;5052727;28;20040;-63
2021/11/19 03:18:19;;;;;;;28.27;12.38;;;;;;;-144.57;100.00;62443.72;5052300;28;20056;-64
2021/11/19 03:20:55;;;;;;;26.92;12.43;;;;;;;-144.57;100.00;62443.72;5052576;28;20375;-64
2021/11/19 03:23:22;;;;;;;31.00;12.18;;;;;;;-144.57;100.00;62443.72;5053433;28;20048;-64
2021/11/19 03:25:49;;;;;;;30.60;13.57;;;;;;;-144.57;100.00;62443.72;5035723;28;20065;-63
2021/11/19 03:28:17;;;;;;;27.73;13.40;;;;;;;-144.57;100.00;62443.72;5052209;28;20040;-64
2021/11/19 03:30:45;;;;;;;29.00;12.80;;;;;;;-144.57;100.00;62443.72;5052066;28;20048;-64
2021/11/19 03:33:17;;;;;;;27.42;13.10;;;;;;;-144.57;100.00;62443.72;5051107;28;20049;-63
2021/11/19 03:35:44;;;;;;;25.75;12.30;;;;;;;-144.57;100.00;62443.72;5051412;28;20048;-64
2021/11/19 03:38:10;;;;;;;26.80;13.65;;;;;;;-144.57;100.00;62443.72;5034952;28;20048;-65
2021/11/19 03:40:39;;;;;;;26.67;12.13;;;;;;;-144.57;100.00;62443.72;5051992;28;20047;-64
2021/11/19 03:43:09;;;;;;;25.67;12.60;;;;;;;-144.57;100.00;62443.72;5051760;28;20401;-64
2021/11/19 03:45:41;;;;;;;26.55;12.35;;;;;;;-144.57;100.00;62443.72;5051733;28;20167;-64
2021/11/19 03:48:07;;;;;;;;;;;;;;;-144.57;100.00;62443.72;5051877;28;20044;-63
2021/11/19 03:50:35;;;;;;;26.17;12.13;;;;;;;-144.57;100.00;62443.72;5051602;28;19920;-63
2021/11/19 03:53:01;;;;;;;25.67;12.02;;;;;;;-144.57;100.00;62443.72;5034634;28;20043;-65
2021/11/19 03:55:33;;;;;;;29.10;12.82;;;;;;;-144.57;100.00;62443.72;5051268;28;20429;-64
2021/11/19 03:58:01;;;;;;;26.70;12.10;;;;;;;-144.57;100.00;62443.72;5051259;28;20052;-64
2021/11/19 04:00:31;;;;;;;27.20;11.50;;;;;;;-144.57;100.00;62443.72;5051279;28;20094;-63
2021/11/19 04:03:00;;;;;;;27.02;12.10;;;;;;;-144.57;100.00;62443.72;5034636;28;20079;-64
2021/11/19 04:05:30;;;;;;;28.00;12.73;;;;;;;-144.57;100.00;62443.72;5034133;28;20087;-64
2021/11/19 04:07:56;;;;;;;28.48;13.95;;;;;;;-144.57;100.00;62443.72;5051020;28;20098;-64
2021/11/19 04:10:27;;;;;;;28.08;13.50;;;;;;;-144.57;100.00;62443.72;5050906;28;20033;-63
2021/11/19 04:12:53;;;;;;;24.65;12.68;;;;;;;-144.57;100.00;62443.72;5050751;28;20049;-64
2021/11/19 04:15:25;;;;;;;30.13;13.07;;;;;;;-144.57;100.00;62443.72;5050886;28;20052;-63
2021/11/19 04:17:51;;;;;;;26.98;12.35;;;;;;;-144.57;100.00;62443.72;5051329;28;20210;-64
2021/11/19 04:20:19;;;;;;;29.52;13.32;;;;;;;-144.57;100.00;62443.72;5052321;28;20425;-64
2021/11/19 04:22:45;;;;;;;26.35;13.43;;;;;;;-144.57;100.00;62443.72;5051373;28;20138;-64
2021/11/19 04:25:13;;;;;;;36.90;14.52;;;;;;;-144.57;100.00;62443.72;5034259;28;20052;-64
2021/11/19 04:27:40;;;;;;;32.15;14.05;;;;;;;-144.57;100.00;62443.72;5051246;28;20464;-64
2021/11/19 04:30:19;;;;;;;26.45;12.15;;;;;;;-144.57;100.00;62443.72;5035333;28;20086;-64
2021/11/19 04:32:47;;;;;;;26.25;12.32;;;;;;;-144.57;100.00;62443.72;5034467;28;20180;-64
2021/11/19 04:35:14;;;;;;;27.70;13.00;;;;;;;-144.57;100.00;62443.72;5051973;28;20079;-64
2021/11/19 04:37:40;;;;;;;29.95;12.63;;;;;;;-144.57;100.00;62443.72;5050631;28;20537;-64
2021/11/19 04:40:11;;;;;;;32.78;13.40;;;;;;;-144.57;100.00;62443.72;5050072;28;20518;-62
2021/11/19 04:42:38;;;;;;;31.65;14.38;;;;;;;-144.57;100.00;62443.72;5050306;28;20522;-64
2021/11/19 04:45:06;;;;;;;29.50;13.27;;;;;;;-144.57;100.00;62443.72;5033796;28;20427;-64
2021/11/19 04:47:34;;;;;;;26.58;12.57;;;;;;;-144.57;100.00;62443.72;5033772;28;20037;-64
2021/11/19 04:50:04;;;;;;;28.45;12.75;;;;;;;-144.57;100.00;62443.72;5043273;28;20485;-65
2021/11/19 04:52:31;;;;;;;30.55;14.00;;;;;;;-144.57;100.00;62443.72;5033550;28;20136;-63
2021/11/19 04:54:56;;;;;;;30.08;12.68;;;;;;;-144.57;100.00;62443.72;5051342;28;20080;-64
2021/11/19 04:57:22;;;;;;;28.45;11.48;;;;;;;-144.57;100.00;62443.72;5017144;28;20041;-62
2021/11/19 04:59:48;;;;;;;28.90;13.32;;;;;;;-144.57;100.00;62443.72;5050195;28;20467;-64
2021/11/19 05:02:16;;;;;;;26.83;12.40;;;;;;;-144.57;100.00;62443.72;5050362;28;20558;-62
2021/11/19 05:05:05;;;;;;;27.10;12.57;;;;;;;-144.57;100.00;62443.72;5050607;28;20056;-64
2021/11/19 05:07:35;;;;;;;25.77;12.37;;;;;;;-144.57;100.00;62443.72;5033662;28;20410;-63
2021/11/19 05:10:01;;;;;;;24.00;11.60;;;;;;;-144.57;100.00;62443.72;5051463;28;20045;-62
2021/11/19 05:12:38;;;;;;;29.85;12.77;;;;;;;-144.57;100.00;62443.72;5051548;28;20041;-61
2021/11/19 05:15:09;;;;;;;28.90;12.05;;;;;;;-144.57;100.00;62443.72;5001012;28;20556;-62
2021/11/19 05:17:35;;;;;;;28.73;11.88;;;;;;;-144.57;100.00;62443.72;5050051;28;20060;-62
2021/11/19 05:20:03;;;;;;;24.83;11.18;;;;;;;-144.57;100.00;62443.72;5050133;28;20052;-61
2021/11/19 05:22:29;;;;;;;27.65;12.00;;;;;;;-144.57;100.00;62443.72;5046853;28;20111;-62
2021/11/19 05:24:55;;;;;;;29.20;11.40;;;;;;;-144.57;100.00;62443.72;5050153;28;20513;-62
2021/11/19 05:27:21;;;;;;;27.48;12.20;;;;;;;-144.57;100.00;62443.72;5051025;28;20072;-62
2021/11/19 05:29:48;;;;;;;26.85;11.48;;;;;;;-144.57;100.00;62443.72;5049874;28;20509;-61
2021/11/19 05:32:17;;;;;;;26.02;11.73;;;;;;;-144.57;100.00;62443.72;5049877;28;20047;-63
2021/11/19 05:34:44;;;;;;;23.95;11.55;;;;;;;-144.57;100.00;62443.72;5049943;28;20065;-62
2021/11/19 05:37:11;;;;;;;24.83;11.18;;;;;;;-144.57;100.00;62443.72;5050049;28;20171;-62
2021/11/19 05:39:37;;;;;;;29.65;11.75;;;;;;;-144.57;100.00;62443.72;5049921;28;20045;-62
2021/11/19 05:42:06;;;;;;;28.80;12.18;;;;;;;-144.57;100.00;62443.72;5041428;28;20044;-62
2021/11/19 05:44:35;;;;;;;22.52;10.75;;;;;;;-144.57;100.00;62443.72;5014478;28;20552;-62
2021/11/19 05:47:20;;;;;;;29.33;12.32;;;;;;;-144.57;100.00;62443.72;5047311;28;20082;-63
2021/11/19 05:49:57;;;;;;;27.75;12.00;;;;;;;-144.57;100.00;62443.72;5045515;28;20041;-62
2021/11/19 05:52:23;;;;;;;27.10;12.00;;;;;;;-144.57;100.00;62443.72;5047725;28;20045;-62
2021/11/19 05:54:49;;;;;;;32.75;12.27;;;;;;;-144.57;100.00;62443.72;5045761;28;21789;-62
2021/11/19 05:57:15;;;;;;;25.35;12.15;;;;;;;-144.57;100.00;62443.72;5045364;28;20080;-62
2021/11/19 05:59:41;;;;;;;31.15;11.80;;;;;;;-144.57;100.00;62443.72;5045379;28;20045;-62
2021/11/19 06:02:12;;;;;;;27.40;11.85;;;;;;;-144.57;100.00;62443.72;5048962;28;20072;-61
2021/11/19 06:04:56;;;;;;;24.45;11.23;;;;;;;-144.57;100.00;62443.72;5048839;28;20056;-62
2021/11/19 06:07:41;;;;;;;26.00;12.07;;;;;;;-144.57;100.00;62443.72;5051874;28;20456;-63
2021/11/19 06:10:15;;;;;;;22.98;10.95;;;;;;;-144.57;100.00;62443.72;5015023;28;20037;-61
2021/11/19 06:12:45;;;;;;;24.83;11.25;;;;;;;-144.57;100.00;62443.72;5031711;28;20418;-61
2021/11/19 06:15:28;;;;;;;25.52;10.80;;;;;;;-144.57;100.00;62443.72;5049045;28;20033;-63
2021/11/19 06:17:58;;;;;;;23.13;10.95;;;;;;;-144.57;100.00;62443.72;5047844;28;20055;-61
2021/11/19 06:20:28;;;;;;;22.08;10.90;;;;;;;-144.57;100.00;62443.72;5049143;28;20513;-62
2021/11/19 06:23:07;;;;;;;24.08;9.75;;;;;;;-144.57;100.00;62443.72;5031333;28;20518;-62
2021/11/19 06:25:37;;;;;;;20.75;9.75;;;;;;;-144.57;100.00;62443.72;5030737;28;20061;-62
2021/11/19 06:28:06;;;;;;;23.15;10.50;;;;;;;-144.57;100.00;62443.72;5048249;28;20045;-62
2021/11/19 06:30:33;;;;;;;24.17;10.07;;;;;;;-144.57;100.00;62443.72;5031029;28;20087;-64
2021/11/19 06:32:59;;;;;;;23.45;10.60;;;;;;;-144.57;100.00;62443.72;5048607;28;20049;-63
2021/11/19 06:35:26;;;;;;;26.02;11.32;;;;;;;-144.57;100.00;62443.72;5047739;28;20076;-62
2021/11/19 06:37:52;;;;;;;21.27;10.18;;;;;;;-144.57;100.00;62443.72;5048165;28;20079;-62
2021/11/19 06:40:29;;;;;;;23.38;10.27;;;;;;;-144.57;100.00;62443.72;5047227;28;20049;-68
2021/11/19 06:43:14;;;;;;;21.48;10.55;;;;;;;-144.57;100.00;62443.72;5035397;28;20460;-63
2021/11/19 06:46:07;;;;;;;27.98;11.10;;;;;;;-144.57;100.00;62443.72;5031629;28;20045;-64
2021/11/19 06:48:50;;;;;;;21.52;10.25;;;;;;;-144.57;100.00;62443.72;5046432;28;20120;-65
2021/11/19 06:51:34;;;;;;;23.20;10.77;;;;;;;-144.57;100.00;62443.72;5029784;28;20040;-65
2021/11/19 06:54:22;;;;;;;23.88;11.63;;;;;;;-144.57;100.00;62443.72;5047078;28;20684;-64
2021/11/19 06:57:14;;;;;;;22.48;10.05;;;;;;;-144.57;100.00;62443.72;5045638;28;20530;-66
2021/11/19 06:59:42;;;;;;;24.95;10.45;;;;;;;-144.57;100.00;62443.72;5043582;28;20053;-67
2021/11/19 07:02:10;;;;;;;20.77;10.15;;;;;;;-144.57;100.00;62443.72;5032084;28;20068;-64
2021/11/19 07:04:36;;;;;;;22.02;10.98;;;;;;;-144.57;100.00;62443.72;5049202;28;20047;-63
2021/11/19 07:07:06;;;;;;;24.02;10.73;;;;;;;-144.57;100.00;62443.72;5048827;28;20052;-63
2021/11/19 07:09:34;;;;;;;23.40;11.18;;;;;;;-144.57;100.00;62443.72;5046784;28;20052;-63
2021/11/19 07:12:00;;;;;;;21.67;10.63;;;;;;;-144.57;100.00;62443.72;5047089;28;20200;-64
2021/11/19 07:14:35;;;;;;;21.80;10.05;;;;;;;-144.57;100.00;62443.72;5030287;28;20056;-65
2021/11/19 07:17:04;;;;;;;22.90;10.90;;;;;;;-144.57;100.00;62443.72;5045345;28;20045;-61
2021/11/19 07:19:31;;;;;;;21.33;9.73;;;;;;;-144.57;100.00;62443.72;5045130;28;20414;-62
2021/11/19 07:21:58;;;;;;;20.50;9.38;;;;;;;-144.57;100.00;62443.72;5050617;28;20400;-63
2021/11/19 07:24:24;;;;;;;22.17;9.07;;;;;;;-144.57;100.00;62443.72;5015984;28;20110;-63
2021/11/19 07:26:52;;;;;;;20.45;9.52;;;;;;;-144.57;100.00;62443.72;5031575;28;20129;-63
2021/11/19 07:29:20;;;;;;;21.40;10.02;;;;;;;-144.57;100.00;62443.72;5047926;28;20584;-67
2021/11/19 07:32:12;;;;;;;19.67;9.50;;;;;;;-144.57;100.00;62443.72;5030828;28;20474;-65
2021/11/19 07:34:56;;;;;;;17.15;9.02;;;;;;;-144.57;100.00;62443.72;5048947;28;20063;-64
2021/11/19 07:37:54;;;;;;;19.27;9.23;;;;;;;-144.57;100.00;62443.72;5028821;28;20523;-66
2021/11/19 07:40:41;;;;;;;17.23;8.88;;;;;;;-144.57;100.00;62443.72;5028156;28;20127;-63
2021/11/19 07:43:14;;;;;;;20.08;9.55;;;;;;;-144.57;100.00;62443.72;5015168;28;20075;-64
2021/11/19 07:46:00;;;;;;;21.13;8.85;;;;;;;-144.57;100.00;62443.72;5011397;28;20077;-64
2021/11/19 07:48:35;;;;;;;19.83;10.23;;;;;;;-144.57;100.00;62443.72;5008050;28;20064;-66
2021/11/19 07:51:06;;;;;;;21.98;9.63;;;;;;;-144.57;100.00;62443.72;5008617;28;20461;-64
2021/11/19 07:53:32;;;;;;;21.17;9.23;;;;;;;-144.57;100.00;62443.72;4993019;28;20057;-64
2021/11/19 07:55:59;;;;;;;16.60;9.38;;;;;;;-144.57;100.00;62443.72;5025881;28;20049;-65
2021/11/19 07:58:27;;;;;;;21.67;8.77;;;;;;;-144.57;100.00;62443.72;5012965;28;20065;-64
2021/11/19 08:00:55;;;;;;;16.85;8.65;;;;;;;-144.57;100.00;62443.72;5012330;28;20419;-65
2021/11/19 08:03:21;;;;;;;23.33;10.13;;;;;;;-144.57;100.00;62443.72;5011194;28;20060;-65
2021/11/19 08:05:52;;;;;;;18.15;8.93;;;;;;;-144.57;100.00;62443.72;5012399;28;20042;-64
2021/11/19 08:08:26;;;;;;;16.25;8.18;;;;;;;-144.57;100.00;62443.72;4995934;28;20465;-66
2021/11/19 08:11:07;;;;;;;16.52;8.30;;;;;;;-144.57;100.00;62443.72;5027734;28;20561;-68
2021/11/19 08:13:33;;;;;;;;;;;;;;;-144.57;100.00;62443.72;4979689;28;20067;-66
2021/11/19 08:16:00;;;;;;;17.23;8.13;;;;;;;-144.57;100.00;62443.72;4997590;28;19925;-63
2021/11/19 08:18:37;;;;;;;18.40;9.32;;;;;;;-144.57;100.00;62443.72;5048667;28;20059;-64
2021/11/19 08:21:03;;;;;;;16.35;9.32;;;;;;;-144.57;100.00;62443.72;5048841;28;20059;-65
2021/11/19 08:23:34;;;;;;;15.93;7.85;;;;;;;-144.57;100.00;62443.72;5049881;28;20052;-65
2021/11/19 08:26:09;;;;;;;18.67;8.82;;;;;;;-144.57;100.00;62443.72;5048418;28;20061;-64
2021/11/19 08:28:36;;;;;;;17.65;9.20;;;;;;;-144.57;100.00;62443.72;5048425;28;20049;-64
2021/11/19 08:31:07;;;;;;;30.17;14.13;;;;;;;-144.57;100.00;62443.72;5049628;28;20063;-65
2021/11/19 08:33:33;;;;;;;18.75;9.15;;;;;;;-144.57;100.00;62443.72;5033088;28;20044;-64
2021/11/19 08:35:59;;;;;;;18.02;8.63;;;;;;;-144.57;100.00;62443.72;5051605;28;20057;-63
2021/11/19 08:38:26;;;;;;;18.52;9.48;;;;;;;-144.57;100.00;62443.72;5032812;28;20098;-64
2021/11/19 08:40:53;;;;;;;18.17;8.55;;;;;;;-144.57;100.00;62443.72;5048402;28;20048;-65
2021/11/19 08:43:22;;;;;;;15.73;7.90;;;;;;;-144.57;100.00;62443.72;5050733;28;20060;-65
2021/11/19 08:45:48;;;;;;;15.07;8.10;;;;;;;-144.57;100.00;62443.72;5049566;28;20650;-65
2021/11/19 08:48:16;;;;;;;15.00;8.25;;;;;;;-144.57;100.00;62443.72;5048563;28;20075;-65
2021/11/19 08:50:42;;;;;;;15.57;7.88;;;;;;;-144.57;100.00;62443.72;5049353;28;20033;-67
2021/11/19 08:53:12;;;;;;;14.65;7.82;;;;;;;-144.57;100.00;62443.72;5049870;28;20139;-66
2021/11/19 08:55:44;;;;;;;16.52;8.63;;;;;;;-144.57;100.00;62443.72;5047343;28;20551;-66
2021/11/19 08:58:18;;;;;;;18.30;9.02;;;;;;;-144.57;100.00;62443.72;5015660;28;20067;-66
2021/11/19 09:00:46;;;;;;;14.73;7.93;;;;;;;-144.57;100.00;62443.72;5050420;28;20052;-64
2021/11/19 09:03:12;;;;;;;17.45;8.60;;;;;;;-144.57;100.00;62443.72;5049057;28;20131;-64
2021/11/19 09:05:40;;;;;;;20.67;8.77;;;;;;;-144.57;100.00;62443.72;5048116;28;20502;-65
2021/11/19 09:08:11;;;;;;;15.52;8.75;;;;;;;-144.57;100.00;62443.72;5047822;28;20417;-64
2021/11/19 09:10:37;;;;;;;;;;;;;;;-144.57;100.00;62443.72;5033839;28;20033;-63
2021/11/19 09:13:03;;;;;;;16.92;8.48;;;;;;;-144.57;100.00;62443.72;5051054;28;19925;-64
2021/11/19 09:15:29;;;;;;;18.73;8.82;;;;;;;-144.57;100.00;62443.72;5048298;28;20094;-65
2021/11/19 09:18:09;;;;;;;12.73;8.38;;;;;;;-144.57;100.00;62443.72;5015854;28;20041;-65
2021/11/19 09:20:59;;;;;;;18.98;9.23;;;;;;;-144.57;100.00;62443.72;5048030;28;20075;-63
2021/11/19 09:23:33;;;;;;;24.35;10.23;;;;;;;-144.57;100.00;62443.72;5049147;28;20049;-64
2021/11/19 09:26:06;;;;;;;16.67;8.70;;;;;;;-144.57;100.00;62443.72;5049534;28;20101;-65
2021/11/19 09:28:35;;;;;;;19.70;9.40;;;;;;;-144.57;100.00;62443.72;5049493;28;20049;-64
2021/11/19 09:31:03;;;;;;;18.70;8.98;;;;;;;-144.57;100.00;62443.72;5048111;28;20053;-66
2021/11/19 09:33:29;;;;;;;16.77;8.07;;;;;;;-144.57;100.00;62443.72;5047500;28;20098;-68
2021/11/19 09:35:56;;;;;;;15.65;9.68;;;;;;;-144.57;100.00;62443.72;5048155;28;20045;-68
2021/11/19 09:38:25;;;;;;;18.20;8.82;;;;;;;-144.57;100.00;62443.72;5046932;28;20051;-66
2021/11/19 09:41:17;;;;;;;19.65;8.93;;;;;;;-144.57;100.00;62443.72;5047337;28;20037;-66
2021/11/19 09:44:04;;;;;;;16.13;8.30;;;;;;;-144.57;100.00;62443.72;5046532;28;20049;-64
2021/11/19 09:47:00;;;;;;;15.50;8.23;;;;;;;-144.57;100.00;62443.72;5049101;28;20040;-64
2021/11/19 09:49:25;;;;;;;14.73;7.75;;;;;;;-144.57;100.00;62443.72;5049889;28;20091;-65
2021/11/19 09:52:09;;;;;;;15.10;7.80;;;;;;;-144.57;100.00;62443.72;5048617;28;20383;-65
2021/11/19 09:54:44;;;;;;;14.55;7.53;;;;;;;-144.57;100.00;62443.72;5047105;28;20037;-65
2021/11/19 09:57:37;;;;;;;19.80;8.63;;;;;;;-144.57;100.00;62443.72;5047557;28;20037;-63
2021/11/19 10:00:16;;;;;;;17.02;7.97;;;;;;;-144.57;100.00;62443.72;5046082;28;20775;-65
2021/11/19 10:03:10;;;;;;;16.60;8.05;;;;;;;-144.57;100.00;62443.72;5046378;28;20041;-64
2021/11/19 10:05:45;;;;;;;17.90;8.20;;;;;;;-144.57;100.00;62443.72;5029579;28;20041;-63
2021/11/19 10:08:39;;;;;;;16.92;8.48;;;;;;;-144.57;100.00;62443.72;5045259;28;20049;-63
2021/11/19 10:11:21;;;;;;;14.70;7.18;;;;;;;-144.57;100.00;62443.72;5046059;28;20051;-65
2021/11/19 10:14:01;;;;;;;12.15;7.13;;;;;;;-144.57;100.00;62443.72;5044517;28;20041;-64
2021/11/19 10:16:57;;;;;;;14.45;7.43;;;;;;;-144.57;100.00;62443.72;5047480;28;20061;-65
2021/11/19 10:19:39;;;;;;;16.35;7.78;;;;;;;-144.57;100.00;62443.72;5045343;28;20051;-63
2021/11/19 10:22:24;;;;;;;20.38;7.55;;;;;;;-144.57;100.00;62443.72;5043970;28;20512;-63
2021/11/19 10:25:46;;;;;;;15.75;8.23;;;;;;;-144.57;100.00;62443.72;5029492;28;20048;-65
2021/11/19 10:28:56;;;;;;;15.43;8.30;;;;;;;-144.57;100.00;62443.72;4951406;28;20081;-64
2021/11/19 10:32:11;;;;;;;15.50;8.73;;;;;;;-144.57;100.00;62443.72;5041716;28;20075;-65
2021/11/19 10:35:26;;;;;;;14.30;7.20;;;;;;;-144.57;100.00;62443.72;5022024;28;20539;-63
2021/11/19 10:38:26;;;;;;;14.80;7.78;;;;;;;-144.57;100.00;62443.72;5031113;28;20045;-65
2021/11/19 10:41:04;;;;;;;12.95;7.25;;;;;;;-144.57;100.00;62443.72;5043592;28;20124;-64
2021/11/19 10:43:51;;;;;;;16.55;7.78;;;;;;;-144.57;100.00;62443.72;5046489;28;20087;-64
2021/11/19 10:46:38;;;;;;;15.15;7.78;;;;;;;-144.57;100.00;62443.72;5049374;28;20045;-64
2021/11/19 10:49:29;;;;;;;15.45;7.15;;;;;;;-144.57;100.00;62443.72;5050204;28;20049;-63
2021/11/19 10:52:28;;;;;;;13.02;7.20;;;;;;;-144.57;100.00;62443.72;5051940;28;20048;-64
2021/11/19 10:55:00;;;;;;;14.03;7.57;;;;;;;-144.57;100.00;62443.72;5050940;28;20067;-67
2021/11/19 10:58:02;;;;;;;17.23;7.43;;;;;;;-144.57;100.00;62443.72;5051104;28;20394;-64
2021/11/19 11:00:55;;;;;;;14.93;7.15;;;;;;;-144.57;100.00;62443.72;5049607;28;20075;-65
2021/11/19 11:03:33;;;;;;;13.65;7.07;;;;;;;-144.57;100.00;62443.72;5049151;28;20118;-65
2021/11/19 11:06:03;;;;;;;11.13;6.82;;;;;;;-144.57;100.00;62443.72;5050664;28;20041;-65
2021/11/19 11:08:31;;;;;;;14.77;6.95;;;;;;;-144.57;100.00;62443.72;5048826;28;20041;-63
2021/11/19 11:11:04;;;;;;;13.10;6.90;;;;;;;-144.57;100.00;62443.72;5050858;28;20028;-64
2021/11/19 11:13:41;;;;;;;11.85;5.97;;;;;;;-144.57;100.00;62443.72;5051674;28;20143;-64
2021/11/19 11:16:18;;;;;;;14.75;7.28;;;;;;;-144.57;100.00;62443.72;5049617;28;20382;-63
2021/11/19 11:18:44;;;;;;;13.55;6.28;;;;;;;-144.57;100.00;62443.72;5034934;28;20081;-64
2021/11/19 11:21:24;;;;;;;12.65;6.75;;;;;;;-144.57;100.00;62443.72;5050272;28;20521;-67
2021/11/19 11:23:58;;;;;;;13.13;6.65;;;;;;;-144.57;100.00;62443.72;5051850;28;20053;-66